sensor_id;sensor_type;location;lat;lon;timestamp;P1;durP1;ratioP1;P2;durP2;ratioP2
13564;SDS011;6854;48.096;11.278;2023-05-25T00:01:24;13.23;;;4.60;;
13564;SDS011;6854;48.096;11.278;2023-05-25T00:03:51;15.73;;;5.50;;
13564;SDS011;6854;48.096;11.278;2023-05-25T00:06:19;15.33;;;4.93;;
13564;SDS011;6854;48.096;11.278;2023-05-25T00:08:51;14.10;;;4.97;;
13564;SDS011;6854;48.096;11.278;2023-05-25T00:11:19;12.90;;;5.30;;
13564;SDS011;6854;48.096;11.278;2023-05-25T00:13:49;8.40;;;4.23;;
13564;SDS011;6854;48.096;11.278;2023-05-25T00:16:16;14.07;;;4.40;;
13564;SDS011;6854;48.096;11.278;2023-05-25T00:18:45;14.50;;;5.00;;
13564;SDS011;6854;48.096;11.278;2023-05-25T00:21:12;15.83;;;5.53;;
13564;SDS011;6854;48.096;11.278;2023-05-25T00:23:42;10.67;;;5.40;;
13564;SDS011;6854;48.096;11.278;2023-05-25T00:26:08;12.53;;;5.10;;
13564;SDS011;6854;48.096;11.278;2023-05-25T00:28:35;14.70;;;5.00;;
13564;SDS011;6854;48.096;11.278;2023-05-25T00:31:02;13.83;;;5.10;;
13564;SDS011;6854;48.096;11.278;2023-05-25T00:33:31;13.83;;;5.30;;
13564;SDS011;6854;48.096;11.278;2023-05-25T00:36:03;18.77;;;5.67;;
13564;SDS011;6854;48.096;11.278;2023-05-25T00:38:30;16.80;;;6.03;;
13564;SDS011;6854;48.096;11.278;2023-05-25T00:40:59;14.50;;;5.30;;
13564;SDS011;6854;48.096;11.278;2023-05-25T00:43:31;13.33;;;4.63;;
13564;SDS011;6854;48.096;11.278;2023-05-25T00:46:02;10.80;;;4.47;;
13564;SDS011;6854;48.096;11.278;2023-05-25T00:48:29;16.33;;;5.10;;
13564;SDS011;6854;48.096;11.278;2023-05-25T00:51:00;10.27;;;5.07;;
13564;SDS011;6854;48.096;11.278;2023-05-25T00:53:26;11.23;;;4.53;;
13564;SDS011;6854;48.096;11.278;2023-05-25T00:56:01;10.70;;;4.90;;
13564;SDS011;6854;48.096;11.278;2023-05-25T00:58:29;12.27;;;5.00;;
13564;SDS011;6854;48.096;11.278;2023-05-25T01:00:59;15.97;;;4.87;;
13564;SDS011;6854;48.096;11.278;2023-05-25T01:03:26;11.00;;;4.93;;
13564;SDS011;6854;48.096;11.278;2023-05-25T01:05:53;10.63;;;4.30;;
13564;SDS011;6854;48.096;11.278;2023-05-25T01:08:20;12.57;;;5.47;;
13564;SDS011;6854;48.096;11.278;2023-05-25T01:10:47;14.10;;;5.47;;
13564;SDS011;6854;48.096;11.278;2023-05-25T01:13:14;11.70;;;5.10;;
13564;SDS011;6854;48.096;11.278;2023-05-25T01:15:41;11.37;;;4.20;;
13564;SDS011;6854;48.096;11.278;2023-05-25T01:18:07;15.20;;;4.17;;
13564;SDS011;6854;48.096;11.278;2023-05-25T01:20:34;18.87;;;4.87;;
13564;SDS011;6854;48.096;11.278;2023-05-25T01:23:09;11.17;;;4.73;;
13564;SDS011;6854;48.096;11.278;2023-05-25T01:25:42;11.70;;;4.60;;
13564;SDS011;6854;48.096;11.278;2023-05-25T01:28:32;14.00;;;4.77;;
13564;SDS011;6854;48.096;11.278;2023-05-25T01:30:56;12.60;;;4.33;;
13564;SDS011;6854;48.096;11.278;2023-05-25T01:33:26;10.93;;;5.10;;
13564;SDS011;6854;48.096;11.278;2023-05-25T01:36:00;15.30;;;4.87;;
13564;SDS011;6854;48.096;11.278;2023-05-25T01:38:27;11.87;;;5.20;;
13564;SDS011;6854;48.096;11.278;2023-05-25T01:40:57;15.60;;;4.50;;
13564;SDS011;6854;48.096;11.278;2023-05-25T01:43:27;16.37;;;4.77;;
13564;SDS011;6854;48.096;11.278;2023-05-25T01:53:57;20.07;;;5.23;;
13564;SDS011;6854;48.096;11.278;2023-05-25T01:56:24;13.27;;;5.07;;
13564;SDS011;6854;48.096;11.278;2023-05-25T01:58:52;14.50;;;5.10;;
13564;SDS011;6854;48.096;11.278;2023-05-25T02:01:21;14.60;;;4.90;;
13564;SDS011;6854;48.096;11.278;2023-05-25T02:03:47;12.80;;;5.07;;
13564;SDS011;6854;48.096;11.278;2023-05-25T02:06:15;13.30;;;4.87;;
13564;SDS011;6854;48.096;11.278;2023-05-25T02:08:41;13.23;;;5.70;;
13564;SDS011;6854;48.096;11.278;2023-05-25T02:11:11;13.20;;;5.77;;
13564;SDS011;6854;48.096;11.278;2023-05-25T02:13:40;11.40;;;5.00;;
13564;SDS011;6854;48.096;11.278;2023-05-25T02:16:06;14.93;;;4.90;;
13564;SDS011;6854;48.096;11.278;2023-05-25T02:18:32;11.83;;;5.40;;
13564;SDS011;6854;48.096;11.278;2023-05-25T02:21:02;13.20;;;4.90;;
13564;SDS011;6854;48.096;11.278;2023-05-25T02:23:28;10.97;;;4.77;;
13564;SDS011;6854;48.096;11.278;2023-05-25T02:25:54;11.40;;;5.57;;
13564;SDS011;6854;48.096;11.278;2023-05-25T02:28:20;16.73;;;5.10;;
13564;SDS011;6854;48.096;11.278;2023-05-25T02:30:46;13.20;;;5.70;;
13564;SDS011;6854;48.096;11.278;2023-05-25T02:33:12;17.10;;;5.87;;
13564;SDS011;6854;48.096;11.278;2023-05-25T02:35:41;16.73;;;5.80;;
13564;SDS011;6854;48.096;11.278;2023-05-25T02:38:07;28.60;;;6.00;;
13564;SDS011;6854;48.096;11.278;2023-05-25T02:40:33;12.03;;;6.00;;
13564;SDS011;6854;48.096;11.278;2023-05-25T02:42:59;14.10;;;5.23;;
13564;SDS011;6854;48.096;11.278;2023-05-25T02:45:25;15.13;;;5.73;;
13564;SDS011;6854;48.096;11.278;2023-05-25T02:47:52;15.87;;;6.03;;
13564;SDS011;6854;48.096;11.278;2023-05-25T02:50:23;15.03;;;6.83;;
13564;SDS011;6854;48.096;11.278;2023-05-25T02:53:01;14.53;;;6.70;;
13564;SDS011;6854;48.096;11.278;2023-05-25T02:55:27;15.70;;;6.43;;
13564;SDS011;6854;48.096;11.278;2023-05-25T02:57:55;12.87;;;5.90;;
13564;SDS011;6854;48.096;11.278;2023-05-25T03:00:22;17.37;;;5.67;;
13564;SDS011;6854;48.096;11.278;2023-05-25T03:02:48;16.90;;;6.60;;
13564;SDS011;6854;48.096;11.278;2023-05-25T03:05:14;15.37;;;6.67;;
13564;SDS011;6854;48.096;11.278;2023-05-25T03:07:44;15.83;;;6.20;;
13564;SDS011;6854;48.096;11.278;2023-05-25T03:10:11;12.33;;;6.33;;
13564;SDS011;6854;48.096;11.278;2023-05-25T03:12:45;15.63;;;6.53;;
13564;SDS011;6854;48.096;11.278;2023-05-25T03:15:18;12.63;;;6.90;;
13564;SDS011;6854;48.096;11.278;2023-05-25T03:17:45;19.10;;;6.70;;
13564;SDS011;6854;48.096;11.278;2023-05-25T03:20:14;20.17;;;7.00;;
13564;SDS011;6854;48.096;11.278;2023-05-25T03:22:51;17.80;;;6.70;;
13564;SDS011;6854;48.096;11.278;2023-05-25T03:25:21;15.27;;;7.03;;
13564;SDS011;6854;48.096;11.278;2023-05-25T03:28:22;13.67;;;6.80;;
13564;SDS011;6854;48.096;11.278;2023-05-25T03:31:20;18.70;;;7.83;;
13564;SDS011;6854;48.096;11.278;2023-05-25T03:33:54;13.40;;;8.10;;
13564;SDS011;6854;48.096;11.278;2023-05-25T03:36:34;15.07;;;6.67;;
13564;SDS011;6854;48.096;11.278;2023-05-25T03:44:49;15.90;;;6.57;;
13564;SDS011;6854;48.096;11.278;2023-05-25T03:47:18;11.53;;;5.60;;
13564;SDS011;6854;48.096;11.278;2023-05-25T03:49:44;20.30;;;5.93;;
13564;SDS011;6854;48.096;11.278;2023-05-25T03:52:19;16.30;;;7.10;;
13564;SDS011;6854;48.096;11.278;2023-05-25T03:54:54;15.47;;;7.10;;
13564;SDS011;6854;48.096;11.278;2023-05-25T03:57:23;16.73;;;7.20;;
13564;SDS011;6854;48.096;11.278;2023-05-25T03:59:50;11.20;;;6.20;;
13564;SDS011;6854;48.096;11.278;2023-05-25T04:02:18;13.20;;;6.20;;
13564;SDS011;6854;48.096;11.278;2023-05-25T04:04:50;18.97;;;7.27;;
13564;SDS011;6854;48.096;11.278;2023-05-25T04:07:28;21.60;;;7.43;;
13564;SDS011;6854;48.096;11.278;2023-05-25T04:09:56;14.50;;;7.07;;
13564;SDS011;6854;48.096;11.278;2023-05-25T04:12:23;22.27;;;7.77;;
13564;SDS011;6854;48.096;11.278;2023-05-25T04:14:52;20.30;;;8.03;;
13564;SDS011;6854;48.096;11.278;2023-05-25T04:17:19;17.60;;;7.80;;
13564;SDS011;6854;48.096;11.278;2023-05-25T04:19:48;15.90;;;8.03;;
13564;SDS011;6854;48.096;11.278;2023-05-25T04:22:18;20.53;;;10.07;;
13564;SDS011;6854;48.096;11.278;2023-05-25T04:24:50;20.17;;;11.00;;
13564;SDS011;6854;48.096;11.278;2023-05-25T04:27:17;19.20;;;11.87;;
13564;SDS011;6854;48.096;11.278;2023-05-25T04:29:44;22.93;;;11.87;;
13564;SDS011;6854;48.096;11.278;2023-05-25T04:32:11;22.80;;;12.40;;
13564;SDS011;6854;48.096;11.278;2023-05-25T04:34:42;22.97;;;13.03;;
13564;SDS011;6854;48.096;11.278;2023-05-25T04:37:08;28.80;;;14.77;;
13564;SDS011;6854;48.096;11.278;2023-05-25T04:39:34;21.00;;;13.80;;
13564;SDS011;6854;48.096;11.278;2023-05-25T04:42:01;20.90;;;13.10;;
13564;SDS011;6854;48.096;11.278;2023-05-25T04:44:28;24.83;;;14.47;;
13564;SDS011;6854;48.096;11.278;2023-05-25T04:46:55;20.50;;;13.03;;
13564;SDS011;6854;48.096;11.278;2023-05-25T04:49:21;25.50;;;14.87;;
13564;SDS011;6854;48.096;11.278;2023-05-25T04:51:47;21.03;;;13.27;;
13564;SDS011;6854;48.096;11.278;2023-05-25T04:54:16;19.30;;;12.90;;
13564;SDS011;6854;48.096;11.278;2023-05-25T04:56:42;25.17;;;13.23;;
13564;SDS011;6854;48.096;11.278;2023-05-25T04:59:11;18.07;;;12.40;;
13564;SDS011;6854;48.096;11.278;2023-05-25T05:01:37;19.03;;;12.47;;
13564;SDS011;6854;48.096;11.278;2023-05-25T05:04:05;18.40;;;11.80;;
13564;SDS011;6854;48.096;11.278;2023-05-25T05:06:32;20.53;;;12.30;;
13564;SDS011;6854;48.096;11.278;2023-05-25T05:08:58;22.73;;;13.10;;
13564;SDS011;6854;48.096;11.278;2023-05-25T05:11:24;18.70;;;12.60;;
13564;SDS011;6854;48.096;11.278;2023-05-25T05:13:53;20.50;;;12.70;;
13564;SDS011;6854;48.096;11.278;2023-05-25T05:16:19;29.20;;;14.00;;
13564;SDS011;6854;48.096;11.278;2023-05-25T05:18:46;21.67;;;13.77;;
13564;SDS011;6854;48.096;11.278;2023-05-25T05:21:12;23.27;;;13.63;;
13564;SDS011;6854;48.096;11.278;2023-05-25T05:23:38;31.97;;;13.30;;
13564;SDS011;6854;48.096;11.278;2023-05-25T05:26:04;25.13;;;14.20;;
13564;SDS011;6854;48.096;11.278;2023-05-25T05:28:34;28.80;;;14.57;;
13564;SDS011;6854;48.096;11.278;2023-05-25T05:31:01;24.63;;;14.10;;
13564;SDS011;6854;48.096;11.278;2023-05-25T05:33:27;25.60;;;13.70;;
13564;SDS011;6854;48.096;11.278;2023-05-25T05:35:54;20.77;;;13.40;;
13564;SDS011;6854;48.096;11.278;2023-05-25T05:38:20;31.57;;;13.47;;
13564;SDS011;6854;48.096;11.278;2023-05-25T05:40:46;36.53;;;14.47;;
13564;SDS011;6854;48.096;11.278;2023-05-25T05:43:12;28.00;;;14.17;;
13564;SDS011;6854;48.096;11.278;2023-05-25T05:45:39;25.43;;;13.40;;
13564;SDS011;6854;48.096;11.278;2023-05-25T05:48:06;27.27;;;13.57;;
13564;SDS011;6854;48.096;11.278;2023-05-25T05:50:38;22.03;;;13.80;;
13564;SDS011;6854;48.096;11.278;2023-05-25T05:53:04;22.03;;;13.80;;
13564;SDS011;6854;48.096;11.278;2023-05-25T05:55:31;23.80;;;13.63;;
13564;SDS011;6854;48.096;11.278;2023-05-25T05:57:57;23.37;;;13.20;;
13564;SDS011;6854;48.096;11.278;2023-05-25T06:00:23;20.90;;;12.90;;
13564;SDS011;6854;48.096;11.278;2023-05-25T06:02:49;21.63;;;13.37;;
13564;SDS011;6854;48.096;11.278;2023-05-25T06:05:15;22.83;;;13.80;;
13564;SDS011;6854;48.096;11.278;2023-05-25T06:07:42;20.77;;;12.23;;
13564;SDS011;6854;48.096;11.278;2023-05-25T06:10:08;22.07;;;13.17;;
13564;SDS011;6854;48.096;11.278;2023-05-25T06:12:46;18.83;;;12.33;;
13564;SDS011;6854;48.096;11.278;2023-05-25T06:15:13;19.00;;;12.80;;
13564;SDS011;6854;48.096;11.278;2023-05-25T06:17:40;25.03;;;12.57;;
13564;SDS011;6854;48.096;11.278;2023-05-25T06:20:07;16.70;;;12.23;;
13564;SDS011;6854;48.096;11.278;2023-05-25T06:22:34;17.70;;;12.10;;
13564;SDS011;6854;48.096;11.278;2023-05-25T06:25:00;16.60;;;11.70;;
13564;SDS011;6854;48.096;11.278;2023-05-25T06:27:26;20.97;;;12.27;;
13564;SDS011;6854;48.096;11.278;2023-05-25T06:29:52;19.30;;;12.57;;
13564;SDS011;6854;48.096;11.278;2023-05-25T06:32:18;18.50;;;11.70;;
13564;SDS011;6854;48.096;11.278;2023-05-25T06:34:44;25.67;;;12.40;;
13564;SDS011;6854;48.096;11.278;2023-05-25T06:37:10;22.73;;;11.90;;
13564;SDS011;6854;48.096;11.278;2023-05-25T06:39:36;19.20;;;12.00;;
13564;SDS011;6854;48.096;11.278;2023-05-25T06:42:03;18.93;;;12.30;;
13564;SDS011;6854;48.096;11.278;2023-05-25T06:44:29;16.43;;;12.37;;
13564;SDS011;6854;48.096;11.278;2023-05-25T06:46:55;18.73;;;11.33;;
13564;SDS011;6854;48.096;11.278;2023-05-25T06:49:21;17.57;;;11.53;;
13564;SDS011;6854;48.096;11.278;2023-05-25T06:51:47;13.50;;;10.70;;
13564;SDS011;6854;48.096;11.278;2023-05-25T06:54:15;16.30;;;12.03;;
13564;SDS011;6854;48.096;11.278;2023-05-25T06:56:41;17.43;;;11.80;;
13564;SDS011;6854;48.096;11.278;2023-05-25T06:59:07;20.40;;;11.30;;
13564;SDS011;6854;48.096;11.278;2023-05-25T07:01:32;17.80;;;10.80;;
13564;SDS011;6854;48.096;11.278;2023-05-25T07:03:58;16.10;;;10.00;;
13564;SDS011;6854;48.096;11.278;2023-05-25T07:06:24;15.43;;;11.40;;
13564;SDS011;6854;48.096;11.278;2023-05-25T07:08:53;21.23;;;12.50;;
13564;SDS011;6854;48.096;11.278;2023-05-25T07:11:19;22.63;;;11.57;;
13564;SDS011;6854;48.096;11.278;2023-05-25T07:13:47;18.57;;;10.80;;
13564;SDS011;6854;48.096;11.278;2023-05-25T07:16:14;22.37;;;11.80;;
13564;SDS011;6854;48.096;11.278;2023-05-25T07:18:43;15.00;;;10.20;;
13564;SDS011;6854;48.096;11.278;2023-05-25T07:21:09;17.67;;;11.73;;
13564;SDS011;6854;48.096;11.278;2023-05-25T07:23:37;13.07;;;9.60;;
13564;SDS011;6854;48.096;11.278;2023-05-25T07:26:05;15.93;;;9.60;;
13564;SDS011;6854;48.096;11.278;2023-05-25T07:28:31;16.60;;;9.20;;
13564;SDS011;6854;48.096;11.278;2023-05-25T07:30:57;15.60;;;9.27;;
13564;SDS011;6854;48.096;11.278;2023-05-25T07:33:24;19.20;;;10.57;;
13564;SDS011;6854;48.096;11.278;2023-05-25T07:35:51;15.23;;;9.47;;
13564;SDS011;6854;48.096;11.278;2023-05-25T07:38:17;16.60;;;10.07;;
13564;SDS011;6854;48.096;11.278;2023-05-25T07:40:44;19.53;;;11.13;;
13564;SDS011;6854;48.096;11.278;2023-05-25T07:43:11;14.87;;;10.93;;
13564;SDS011;6854;48.096;11.278;2023-05-25T07:45:38;19.40;;;11.50;;
13564;SDS011;6854;48.096;11.278;2023-05-25T07:48:04;15.80;;;11.13;;
13564;SDS011;6854;48.096;11.278;2023-05-25T07:50:31;15.07;;;9.47;;
13564;SDS011;6854;48.096;11.278;2023-05-25T07:52:57;17.33;;;10.87;;
13564;SDS011;6854;48.096;11.278;2023-05-25T07:55:29;15.10;;;10.07;;
13564;SDS011;6854;48.096;11.278;2023-05-25T07:57:58;16.40;;;10.50;;
13564;SDS011;6854;48.096;11.278;2023-05-25T08:00:25;14.80;;;10.40;;
13564;SDS011;6854;48.096;11.278;2023-05-25T08:02:57;13.80;;;9.63;;
13564;SDS011;6854;48.096;11.278;2023-05-25T08:05:29;14.07;;;9.67;;
13564;SDS011;6854;48.096;11.278;2023-05-25T08:07:55;12.93;;;9.63;;
13564;SDS011;6854;48.096;11.278;2023-05-25T08:10:23;14.83;;;9.93;;
13564;SDS011;6854;48.096;11.278;2023-05-25T08:12:58;14.57;;;9.63;;
13564;SDS011;6854;48.096;11.278;2023-05-25T08:15:27;14.67;;;10.73;;
13564;SDS011;6854;48.096;11.278;2023-05-25T08:21:01;18.07;;;10.20;;
13564;SDS011;6854;48.096;11.278;2023-05-25T08:23:27;14.43;;;10.10;;
13564;SDS011;6854;48.096;11.278;2023-05-25T08:25:56;19.10;;;10.53;;
13564;SDS011;6854;48.096;11.278;2023-05-25T08:28:23;16.80;;;10.87;;
13564;SDS011;6854;48.096;11.278;2023-05-25T08:30:49;17.83;;;10.50;;
13564;SDS011;6854;48.096;11.278;2023-05-25T08:33:15;16.33;;;10.03;;
13564;SDS011;6854;48.096;11.278;2023-05-25T09:55:14;14.10;;;9.50;;
13564;SDS011;6854;48.096;11.278;2023-05-25T10:07:48;12.70;;;9.13;;
13564;SDS011;6854;48.096;11.278;2023-05-25T11:24:23;12.73;;;8.70;;
13564;SDS011;6854;48.096;11.278;2023-05-25T11:46:07;11.77;;;8.20;;
13564;SDS011;6854;48.096;11.278;2023-05-25T11:52:20;11.37;;;7.60;;
13564;SDS011;6854;48.096;11.278;2023-05-25T11:58:34;12.03;;;9.13;;
13564;SDS011;6854;48.096;11.278;2023-05-25T12:48:11;12.25;;;10.02;;
13564;SDS011;6854;48.096;11.278;2023-05-25T12:51:37;15.10;;;9.48;;
13564;SDS011;6854;48.096;11.278;2023-05-25T13:43:51;10.43;;;7.97;;
13564;SDS011;6854;48.096;11.278;2023-05-25T14:10:55;13.00;;;9.07;;
13564;SDS011;6854;48.096;11.278;2023-05-25T14:20:02;13.30;;;10.15;;
13564;SDS011;6854;48.096;11.278;2023-05-25T14:35:39;15.10;;;11.13;;
13564;SDS011;6854;48.096;11.278;2023-05-25T14:41:28;15.23;;;9.30;;
13564;SDS011;6854;48.096;11.278;2023-05-25T15:03:05;13.73;;;10.68;;
13564;SDS011;6854;48.096;11.278;2023-05-25T15:09:28;13.77;;;10.43;;
13564;SDS011;6854;48.096;11.278;2023-05-25T15:21:22;20.17;;;9.98;;
13564;SDS011;6854;48.096;11.278;2023-05-25T16:13:15;9.48;;;6.30;;
13564;SDS011;6854;48.096;11.278;2023-05-25T17:07:29;13.82;;;6.25;;
13564;SDS011;6854;48.096;11.278;2023-05-25T17:10:25;10.57;;;6.20;;
13564;SDS011;6854;48.096;11.278;2023-05-25T17:16:34;8.83;;;5.97;;
13564;SDS011;6854;48.096;11.278;2023-05-25T17:31:15;8.88;;;5.35;;
13564;SDS011;6854;48.096;11.278;2023-05-25T17:37:28;16.40;;;5.80;;
13564;SDS011;6854;48.096;11.278;2023-05-25T17:40:34;12.50;;;6.10;;
13564;SDS011;6854;48.096;11.278;2023-05-25T17:43:15;15.33;;;5.80;;
13564;SDS011;6854;48.096;11.278;2023-05-25T17:49:06;10.57;;;6.30;;
13564;SDS011;6854;48.096;11.278;2023-05-25T17:51:55;10.27;;;5.90;;
13564;SDS011;6854;48.096;11.278;2023-05-25T17:54:37;10.30;;;5.57;;
13564;SDS011;6854;48.096;11.278;2023-05-25T17:57:04;7.83;;;5.27;;
13564;SDS011;6854;48.096;11.278;2023-05-25T18:02:40;19.53;;;6.20;;
13564;SDS011;6854;48.096;11.278;2023-05-25T18:05:14;15.20;;;7.30;;
13564;SDS011;6854;48.096;11.278;2023-05-25T18:07:42;11.27;;;5.67;;
13564;SDS011;6854;48.096;11.278;2023-05-25T18:10:08;14.40;;;5.73;;
13564;SDS011;6854;48.096;11.278;2023-05-25T18:12:35;11.30;;;6.43;;
13564;SDS011;6854;48.096;11.278;2023-05-25T18:15:03;12.50;;;6.70;;
13564;SDS011;6854;48.096;11.278;2023-05-25T18:17:33;14.40;;;6.40;;
13564;SDS011;6854;48.096;11.278;2023-05-25T18:20:04;10.80;;;5.60;;
13564;SDS011;6854;48.096;11.278;2023-05-25T18:22:30;10.20;;;5.87;;
13564;SDS011;6854;48.096;11.278;2023-05-25T18:24:58;16.73;;;6.63;;
13564;SDS011;6854;48.096;11.278;2023-05-25T18:27:33;10.27;;;5.93;;
13564;SDS011;6854;48.096;11.278;2023-05-25T18:30:31;9.63;;;5.90;;
13564;SDS011;6854;48.096;11.278;2023-05-25T18:33:02;10.17;;;6.10;;
13564;SDS011;6854;48.096;11.278;2023-05-25T18:35:30;14.27;;;6.73;;
13564;SDS011;6854;48.096;11.278;2023-05-25T18:38:24;10.40;;;6.20;;
13564;SDS011;6854;48.096;11.278;2023-05-25T18:40:51;13.80;;;6.80;;
13564;SDS011;6854;48.096;11.278;2023-05-25T18:43:17;11.20;;;6.00;;
13564;SDS011;6854;48.096;11.278;2023-05-25T18:45:43;16.77;;;6.43;;
13564;SDS011;6854;48.096;11.278;2023-05-25T18:48:09;11.03;;;6.30;;
13564;SDS011;6854;48.096;11.278;2023-05-25T18:50:35;9.57;;;5.77;;
13564;SDS011;6854;48.096;11.278;2023-05-25T18:53:05;14.33;;;6.80;;
13564;SDS011;6854;48.096;11.278;2023-05-25T18:55:34;14.70;;;6.30;;
13564;SDS011;6854;48.096;11.278;2023-05-25T18:58:00;13.47;;;6.50;;
13564;SDS011;6854;48.096;11.278;2023-05-25T19:00:26;11.03;;;6.97;;
13564;SDS011;6854;48.096;11.278;2023-05-25T19:02:59;13.30;;;6.30;;
13564;SDS011;6854;48.096;11.278;2023-05-25T19:05:25;16.77;;;6.77;;
13564;SDS011;6854;48.096;11.278;2023-05-25T19:07:51;10.50;;;6.40;;
13564;SDS011;6854;48.096;11.278;2023-05-25T19:10:17;13.70;;;7.27;;
13564;SDS011;6854;48.096;11.278;2023-05-25T19:12:43;14.83;;;7.63;;
13564;SDS011;6854;48.096;11.278;2023-05-25T19:15:09;19.47;;;8.07;;
13564;SDS011;6854;48.096;11.278;2023-05-25T19:17:35;17.03;;;8.67;;
13564;SDS011;6854;48.096;11.278;2023-05-25T19:20:01;12.47;;;7.60;;
13564;SDS011;6854;48.096;11.278;2023-05-25T20:41:24;16.63;;;10.97;;
13564;SDS011;6854;48.096;11.278;2023-05-25T20:44:33;14.93;;;10.60;;
13564;SDS011;6854;48.096;11.278;2023-05-25T20:47:01;18.53;;;10.37;;
13564;SDS011;6854;48.096;11.278;2023-05-25T21:20:19;14.93;;;11.40;;
13564;SDS011;6854;48.096;11.278;2023-05-25T21:23:37;25.23;;;11.80;;
13564;SDS011;6854;48.096;11.278;2023-05-25T21:26:49;17.10;;;12.23;;
13564;SDS011;6854;48.096;11.278;2023-05-25T21:41:41;23.63;;;13.80;;
13564;SDS011;6854;48.096;11.278;2023-05-25T21:56:57;35.73;;;17.67;;
13564;SDS011;6854;48.096;11.278;2023-05-25T22:03:40;29.60;;;18.10;;
13564;SDS011;6854;48.096;11.278;2023-05-25T22:06:44;53.13;;;17.80;;
13564;SDS011;6854;48.096;11.278;2023-05-25T22:12:58;30.13;;;17.20;;
13564;SDS011;6854;48.096;11.278;2023-05-25T22:51:11;39.77;;;24.97;;
13564;SDS011;6854;48.096;11.278;2023-05-25T22:54:17;51.40;;;27.27;;
13564;SDS011;6854;48.096;11.278;2023-05-25T23:09:21;42.23;;;24.07;;
13564;SDS011;6854;48.096;11.278;2023-05-25T23:15:29;46.60;;;24.33;;
13564;SDS011;6854;48.096;11.278;2023-05-25T23:18:41;46.07;;;24.70;;
13564;SDS011;6854;48.096;11.278;2023-05-25T23:22:03;55.13;;;26.47;;
13564;SDS011;6854;48.096;11.278;2023-05-25T23:31:12;55.90;;;26.67;;
13564;SDS011;6854;48.096;11.278;2023-05-25T23:34:23;56.07;;;26.37;;
13564;SDS011;6854;48.096;11.278;2023-05-25T23:36:51;62.30;;;28.80;;
13564;SDS011;6854;48.096;11.278;2023-05-25T23:39:51;71.03;;;29.37;;
13564;SDS011;6854;48.096;11.278;2023-05-25T23:46:22;67.73;;;29.87;;
13564;SDS011;6854;48.096;11.278;2023-05-25T23:49:28;69.17;;;29.83;;
